sensor_id;sensor_type;location;lat;lon;timestamp;P1;durP1;ratioP1;P2;durP2;ratioP2
51754;SDS011;37829;50.370;30.428;2022-10-26T00:00:07;11.77;;;7.50;;
51754;SDS011;37829;50.370;30.428;2022-10-26T00:02:09;10.82;;;7.55;;
51754;SDS011;37829;50.370;30.428;2022-10-26T00:03:11;12.98;;;7.97;;
51754;SDS011;37829;50.370;30.428;2022-10-26T00:04:11;12.37;;;8.73;;
51754;SDS011;37829;50.370;30.428;2022-10-26T00:05:13;14.13;;;8.70;;
51754;SDS011;37829;50.370;30.428;2022-10-26T00:06:15;13.90;;;8.67;;
51754;SDS011;37829;50.370;30.428;2022-10-26T00:07:16;13.38;;;8.25;;
51754;SDS011;37829;50.370;30.428;2022-10-26T00:08:17;14.83;;;8.97;;
51754;SDS011;37829;50.370;30.428;2022-10-26T00:09:18;11.85;;;7.68;;
51754;SDS011;37829;50.370;30.428;2022-10-26T00:10:19;13.53;;;8.40;;
51754;SDS011;37829;50.370;30.428;2022-10-26T00:11:21;13.38;;;8.10;;
51754;SDS011;37829;50.370;30.428;2022-10-26T00:12:22;13.77;;;8.55;;
51754;SDS011;37829;50.370;30.428;2022-10-26T00:13:23;14.55;;;8.45;;
51754;SDS011;37829;50.370;30.428;2022-10-26T00:14:25;14.68;;;9.23;;
51754;SDS011;37829;50.370;30.428;2022-10-26T00:15:27;11.65;;;7.90;;
51754;SDS011;37829;50.370;30.428;2022-10-26T00:16:28;12.13;;;8.05;;
51754;SDS011;37829;50.370;30.428;2022-10-26T00:17:29;11.82;;;7.78;;
51754;SDS011;37829;50.370;30.428;2022-10-26T00:18:30;12.03;;;8.50;;
51754;SDS011;37829;50.370;30.428;2022-10-26T00:19:31;13.85;;;8.82;;
51754;SDS011;37829;50.370;30.428;2022-10-26T00:20:33;14.38;;;7.82;;
51754;SDS011;37829;50.370;30.428;2022-10-26T00:21:34;13.93;;;7.50;;
51754;SDS011;37829;50.370;30.428;2022-10-26T00:22:35;13.27;;;8.87;;
51754;SDS011;37829;50.370;30.428;2022-10-26T00:23:36;12.70;;;8.57;;
51754;SDS011;37829;50.370;30.428;2022-10-26T00:24:37;13.53;;;7.90;;
51754;SDS011;37829;50.370;30.428;2022-10-26T00:25:38;14.43;;;8.48;;
51754;SDS011;37829;50.370;30.428;2022-10-26T00:26:39;10.93;;;8.10;;
51754;SDS011;37829;50.370;30.428;2022-10-26T00:27:40;14.05;;;9.25;;
51754;SDS011;37829;50.370;30.428;2022-10-26T00:28:41;13.35;;;8.25;;
51754;SDS011;37829;50.370;30.428;2022-10-26T00:29:43;16.05;;;8.55;;
51754;SDS011;37829;50.370;30.428;2022-10-26T00:30:44;15.85;;;10.30;;
51754;SDS011;37829;50.370;30.428;2022-10-26T00:31:45;13.77;;;9.57;;
51754;SDS011;37829;50.370;30.428;2022-10-26T00:32:46;17.27;;;10.43;;
51754;SDS011;37829;50.370;30.428;2022-10-26T00:33:50;17.58;;;10.80;;
51754;SDS011;37829;50.370;30.428;2022-10-26T00:34:51;13.00;;;9.00;;
51754;SDS011;37829;50.370;30.428;2022-10-26T00:35:52;17.98;;;10.73;;
51754;SDS011;37829;50.370;30.428;2022-10-26T00:36:53;16.55;;;11.25;;
51754;SDS011;37829;50.370;30.428;2022-10-26T00:37:55;15.60;;;10.90;;
51754;SDS011;37829;50.370;30.428;2022-10-26T00:38:56;22.17;;;11.63;;
51754;SDS011;37829;50.370;30.428;2022-10-26T00:39:57;19.85;;;11.43;;
51754;SDS011;37829;50.370;30.428;2022-10-26T00:40:58;21.03;;;11.50;;
51754;SDS011;37829;50.370;30.428;2022-10-26T00:41:59;21.65;;;12.93;;
51754;SDS011;37829;50.370;30.428;2022-10-26T00:43:00;21.70;;;12.60;;
51754;SDS011;37829;50.370;30.428;2022-10-26T00:45:18;20.58;;;13.38;;
51754;SDS011;37829;50.370;30.428;2022-10-26T00:46:20;19.92;;;12.55;;
51754;SDS011;37829;50.370;30.428;2022-10-26T00:47:24;20.55;;;12.95;;
51754;SDS011;37829;50.370;30.428;2022-10-26T00:48:27;21.75;;;12.95;;
51754;SDS011;37829;50.370;30.428;2022-10-26T00:49:29;20.48;;;12.48;;
51754;SDS011;37829;50.370;30.428;2022-10-26T00:50:31;21.58;;;13.48;;
51754;SDS011;37829;50.370;30.428;2022-10-26T00:51:33;19.88;;;12.85;;
51754;SDS011;37829;50.370;30.428;2022-10-26T00:52:36;20.70;;;12.93;;
51754;SDS011;37829;50.370;30.428;2022-10-26T00:53:37;22.27;;;12.60;;
51754;SDS011;37829;50.370;30.428;2022-10-26T00:54:39;22.35;;;13.13;;
51754;SDS011;37829;50.370;30.428;2022-10-26T00:55:45;23.55;;;13.18;;
51754;SDS011;37829;50.370;30.428;2022-10-26T00:56:47;19.73;;;12.88;;
51754;SDS011;37829;50.370;30.428;2022-10-26T00:57:49;22.05;;;14.27;;
51754;SDS011;37829;50.370;30.428;2022-10-26T00:58:52;21.52;;;12.65;;
51754;SDS011;37829;50.370;30.428;2022-10-26T00:59:53;19.55;;;12.85;;
51754;SDS011;37829;50.370;30.428;2022-10-26T01:00:56;21.15;;;12.15;;
51754;SDS011;37829;50.370;30.428;2022-10-26T01:01:57;19.10;;;10.38;;
51754;SDS011;37829;50.370;30.428;2022-10-26T01:02:59;17.20;;;11.07;;
51754;SDS011;37829;50.370;30.428;2022-10-26T01:04:01;20.85;;;12.20;;
51754;SDS011;37829;50.370;30.428;2022-10-26T01:05:02;16.13;;;10.98;;
51754;SDS011;37829;50.370;30.428;2022-10-26T01:06:05;16.75;;;10.35;;
51754;SDS011;37829;50.370;30.428;2022-10-26T01:07:06;16.70;;;9.80;;
51754;SDS011;37829;50.370;30.428;2022-10-26T01:08:08;19.95;;;10.43;;
51754;SDS011;37829;50.370;30.428;2022-10-26T01:09:09;16.23;;;10.98;;
51754;SDS011;37829;50.370;30.428;2022-10-26T01:10:10;14.98;;;9.45;;
51754;SDS011;37829;50.370;30.428;2022-10-26T01:11:13;16.40;;;9.55;;
51754;SDS011;37829;50.370;30.428;2022-10-26T01:12:14;15.50;;;10.23;;
51754;SDS011;37829;50.370;30.428;2022-10-26T01:13:15;15.77;;;10.23;;
51754;SDS011;37829;50.370;30.428;2022-10-26T01:14:17;17.45;;;9.63;;
51754;SDS011;37829;50.370;30.428;2022-10-26T01:15:19;15.05;;;10.43;;
51754;SDS011;37829;50.370;30.428;2022-10-26T01:16:32;15.30;;;9.23;;
51754;SDS011;37829;50.370;30.428;2022-10-26T01:17:43;14.63;;;9.48;;
51754;SDS011;37829;50.370;30.428;2022-10-26T01:18:51;14.57;;;9.98;;
51754;SDS011;37829;50.370;30.428;2022-10-26T01:21:18;16.88;;;10.00;;
51754;SDS011;37829;50.370;30.428;2022-10-26T01:22:24;18.85;;;9.52;;
51754;SDS011;37829;50.370;30.428;2022-10-26T01:23:29;14.90;;;8.98;;
51754;SDS011;37829;50.370;30.428;2022-10-26T01:24:34;13.82;;;9.07;;
51754;SDS011;37829;50.370;30.428;2022-10-26T01:25:49;14.43;;;9.35;;
51754;SDS011;37829;50.370;30.428;2022-10-26T01:26:56;14.15;;;9.38;;
51754;SDS011;37829;50.370;30.428;2022-10-26T01:28:01;13.82;;;9.43;;
51754;SDS011;37829;50.370;30.428;2022-10-26T01:29:13;17.63;;;9.43;;
51754;SDS011;37829;50.370;30.428;2022-10-26T01:30:19;14.50;;;8.73;;
51754;SDS011;37829;50.370;30.428;2022-10-26T01:31:23;15.48;;;9.32;;
51754;SDS011;37829;50.370;30.428;2022-10-26T01:32:29;14.43;;;9.20;;
51754;SDS011;37829;50.370;30.428;2022-10-26T01:33:32;15.93;;;8.85;;
51754;SDS011;37829;50.370;30.428;2022-10-26T01:34:35;16.25;;;10.10;;
51754;SDS011;37829;50.370;30.428;2022-10-26T01:35:40;15.25;;;8.75;;
51754;SDS011;37829;50.370;30.428;2022-10-26T01:36:43;16.63;;;9.40;;
51754;SDS011;37829;50.370;30.428;2022-10-26T01:37:45;14.43;;;8.95;;
51754;SDS011;37829;50.370;30.428;2022-10-26T01:38:51;12.80;;;8.13;;
51754;SDS011;37829;50.370;30.428;2022-10-26T01:39:55;14.48;;;8.77;;
51754;SDS011;37829;50.370;30.428;2022-10-26T01:40:59;14.77;;;8.80;;
51754;SDS011;37829;50.370;30.428;2022-10-26T01:42:02;14.45;;;8.70;;
51754;SDS011;37829;50.370;30.428;2022-10-26T01:43:05;14.23;;;9.10;;
51754;SDS011;37829;50.370;30.428;2022-10-26T01:44:08;15.30;;;9.20;;
51754;SDS011;37829;50.370;30.428;2022-10-26T01:45:10;14.18;;;7.85;;
51754;SDS011;37829;50.370;30.428;2022-10-26T01:46:12;14.13;;;8.85;;
51754;SDS011;37829;50.370;30.428;2022-10-26T01:47:14;14.32;;;8.77;;
51754;SDS011;37829;50.370;30.428;2022-10-26T01:48:17;14.02;;;9.05;;
51754;SDS011;37829;50.370;30.428;2022-10-26T01:49:21;16.10;;;9.48;;
51754;SDS011;37829;50.370;30.428;2022-10-26T01:50:23;14.48;;;9.02;;
51754;SDS011;37829;50.370;30.428;2022-10-26T01:51:25;13.60;;;8.63;;
51754;SDS011;37829;50.370;30.428;2022-10-26T01:52:26;16.70;;;9.38;;
51754;SDS011;37829;50.370;30.428;2022-10-26T01:53:27;16.63;;;8.82;;
51754;SDS011;37829;50.370;30.428;2022-10-26T01:54:28;14.37;;;9.07;;
51754;SDS011;37829;50.370;30.428;2022-10-26T01:56:32;13.95;;;8.93;;
51754;SDS011;37829;50.370;30.428;2022-10-26T01:57:34;16.00;;;9.77;;
51754;SDS011;37829;50.370;30.428;2022-10-26T01:58:43;15.40;;;8.63;;
51754;SDS011;37829;50.370;30.428;2022-10-26T01:59:55;16.58;;;9.45;;
51754;SDS011;37829;50.370;30.428;2022-10-26T02:00:58;17.17;;;9.65;;
51754;SDS011;37829;50.370;30.428;2022-10-26T02:02:15;14.35;;;9.20;;
51754;SDS011;37829;50.370;30.428;2022-10-26T02:03:19;14.60;;;9.02;;
51754;SDS011;37829;50.370;30.428;2022-10-26T02:04:27;13.85;;;8.93;;
51754;SDS011;37829;50.370;30.428;2022-10-26T02:05:39;14.02;;;8.60;;
51754;SDS011;37829;50.370;30.428;2022-10-26T02:06:44;16.58;;;9.00;;
51754;SDS011;37829;50.370;30.428;2022-10-26T02:07:49;16.27;;;9.80;;
51754;SDS011;37829;50.370;30.428;2022-10-26T02:08:55;15.40;;;9.32;;
51754;SDS011;37829;50.370;30.428;2022-10-26T02:09:58;13.88;;;9.32;;
51754;SDS011;37829;50.370;30.428;2022-10-26T02:11:03;15.30;;;9.80;;
51754;SDS011;37829;50.370;30.428;2022-10-26T02:12:10;15.85;;;10.00;;
51754;SDS011;37829;50.370;30.428;2022-10-26T02:13:15;17.05;;;10.00;;
51754;SDS011;37829;50.370;30.428;2022-10-26T02:14:17;16.77;;;10.18;;
51754;SDS011;37829;50.370;30.428;2022-10-26T02:15:23;16.70;;;10.95;;
51754;SDS011;37829;50.370;30.428;2022-10-26T02:16:27;15.43;;;8.85;;
51754;SDS011;37829;50.370;30.428;2022-10-26T02:17:33;15.52;;;9.75;;
51754;SDS011;37829;50.370;30.428;2022-10-26T02:18:36;16.23;;;9.40;;
51754;SDS011;37829;50.370;30.428;2022-10-26T02:19:39;15.27;;;9.68;;
51754;SDS011;37829;50.370;30.428;2022-10-26T02:20:44;21.33;;;9.98;;
51754;SDS011;37829;50.370;30.428;2022-10-26T02:21:47;17.27;;;10.13;;
51754;SDS011;37829;50.370;30.428;2022-10-26T02:22:50;19.65;;;10.05;;
51754;SDS011;37829;50.370;30.428;2022-10-26T02:23:53;15.82;;;9.23;;
51754;SDS011;37829;50.370;30.428;2022-10-26T02:24:55;17.85;;;10.30;;
51754;SDS011;37829;50.370;30.428;2022-10-26T02:25:58;16.67;;;10.30;;
51754;SDS011;37829;50.370;30.428;2022-10-26T02:26:59;19.27;;;9.98;;
51754;SDS011;37829;50.370;30.428;2022-10-26T02:28:03;22.75;;;9.95;;
51754;SDS011;37829;50.370;30.428;2022-10-26T02:29:06;16.88;;;9.60;;
51754;SDS011;37829;50.370;30.428;2022-10-26T02:30:09;17.23;;;10.00;;
51754;SDS011;37829;50.370;30.428;2022-10-26T02:31:11;15.40;;;9.57;;
51754;SDS011;37829;50.370;30.428;2022-10-26T02:32:13;17.38;;;10.80;;
51754;SDS011;37829;50.370;30.428;2022-10-26T02:33:16;18.20;;;10.48;;
51754;SDS011;37829;50.370;30.428;2022-10-26T02:34:19;14.38;;;8.75;;
51754;SDS011;37829;50.370;30.428;2022-10-26T02:35:22;23.02;;;9.48;;
51754;SDS011;37829;50.370;30.428;2022-10-26T02:36:25;16.60;;;9.85;;
51754;SDS011;37829;50.370;30.428;2022-10-26T02:37:27;15.45;;;9.90;;
51754;SDS011;37829;50.370;30.428;2022-10-26T02:38:30;16.35;;;9.85;;
51754;SDS011;37829;50.370;30.428;2022-10-26T02:39:32;16.02;;;8.85;;
51754;SDS011;37829;50.370;30.428;2022-10-26T02:40:34;14.23;;;9.30;;
51754;SDS011;37829;50.370;30.428;2022-10-26T02:41:35;17.10;;;9.90;;
51754;SDS011;37829;50.370;30.428;2022-10-26T02:42:38;16.35;;;10.10;;
51754;SDS011;37829;50.370;30.428;2022-10-26T02:43:43;15.75;;;8.95;;
51754;SDS011;37829;50.370;30.428;2022-10-26T02:44:47;17.33;;;9.90;;
51754;SDS011;37829;50.370;30.428;2022-10-26T02:45:50;17.95;;;9.82;;
51754;SDS011;37829;50.370;30.428;2022-10-26T02:46:52;16.60;;;9.32;;
51754;SDS011;37829;50.370;30.428;2022-10-26T02:47:53;19.70;;;10.20;;
51754;SDS011;37829;50.370;30.428;2022-10-26T02:48:55;19.55;;;9.68;;
51754;SDS011;37829;50.370;30.428;2022-10-26T02:49:56;18.20;;;10.05;;
51754;SDS011;37829;50.370;30.428;2022-10-26T02:50:58;17.58;;;9.75;;
51754;SDS011;37829;50.370;30.428;2022-10-26T02:52:01;18.02;;;10.30;;
51754;SDS011;37829;50.370;30.428;2022-10-26T02:53:06;16.55;;;9.27;;
51754;SDS011;37829;50.370;30.428;2022-10-26T02:54:12;16.33;;;9.25;;
51754;SDS011;37829;50.370;30.428;2022-10-26T02:55:15;14.90;;;9.05;;
51754;SDS011;37829;50.370;30.428;2022-10-26T02:56:19;17.63;;;10.38;;
51754;SDS011;37829;50.370;30.428;2022-10-26T02:57:22;17.13;;;9.52;;
51754;SDS011;37829;50.370;30.428;2022-10-26T02:58:25;17.52;;;9.68;;
51754;SDS011;37829;50.370;30.428;2022-10-26T02:59:31;20.50;;;10.25;;
51754;SDS011;37829;50.370;30.428;2022-10-26T03:00:34;17.80;;;9.40;;
51754;SDS011;37829;50.370;30.428;2022-10-26T03:01:35;18.90;;;10.68;;
51754;SDS011;37829;50.370;30.428;2022-10-26T03:02:36;16.83;;;9.32;;
51754;SDS011;37829;50.370;30.428;2022-10-26T03:03:37;18.15;;;9.70;;
51754;SDS011;37829;50.370;30.428;2022-10-26T03:04:39;15.17;;;9.20;;
51754;SDS011;37829;50.370;30.428;2022-10-26T03:06:41;15.40;;;8.98;;
51754;SDS011;37829;50.370;30.428;2022-10-26T03:07:42;13.95;;;8.75;;
51754;SDS011;37829;50.370;30.428;2022-10-26T03:08:44;18.02;;;9.60;;
51754;SDS011;37829;50.370;30.428;2022-10-26T03:09:45;18.02;;;9.98;;
51754;SDS011;37829;50.370;30.428;2022-10-26T03:10:46;17.53;;;9.20;;
51754;SDS011;37829;50.370;30.428;2022-10-26T03:11:47;16.70;;;9.27;;
51754;SDS011;37829;50.370;30.428;2022-10-26T03:12:48;18.23;;;9.65;;
51754;SDS011;37829;50.370;30.428;2022-10-26T03:13:49;22.75;;;10.25;;
51754;SDS011;37829;50.370;30.428;2022-10-26T03:14:50;17.93;;;9.70;;
51754;SDS011;37829;50.370;30.428;2022-10-26T03:15:53;16.45;;;10.40;;
51754;SDS011;37829;50.370;30.428;2022-10-26T03:16:54;21.77;;;10.23;;
51754;SDS011;37829;50.370;30.428;2022-10-26T03:17:56;17.63;;;9.82;;
51754;SDS011;37829;50.370;30.428;2022-10-26T03:18:57;15.80;;;8.88;;
51754;SDS011;37829;50.370;30.428;2022-10-26T03:19:58;17.55;;;9.88;;
51754;SDS011;37829;50.370;30.428;2022-10-26T03:20:59;16.33;;;9.32;;
51754;SDS011;37829;50.370;30.428;2022-10-26T03:22:00;15.90;;;9.13;;
51754;SDS011;37829;50.370;30.428;2022-10-26T03:23:01;14.00;;;9.03;;
51754;SDS011;37829;50.370;30.428;2022-10-26T03:24:03;18.70;;;9.88;;
51754;SDS011;37829;50.370;30.428;2022-10-26T03:25:04;19.05;;;9.75;;
51754;SDS011;37829;50.370;30.428;2022-10-26T03:27:06;16.60;;;9.88;;
51754;SDS011;37829;50.370;30.428;2022-10-26T03:28:07;19.27;;;9.60;;
51754;SDS011;37829;50.370;30.428;2022-10-26T03:29:08;16.13;;;10.10;;
51754;SDS011;37829;50.370;30.428;2022-10-26T03:30:10;18.40;;;10.02;;
51754;SDS011;37829;50.370;30.428;2022-10-26T03:31:10;19.40;;;9.77;;
51754;SDS011;37829;50.370;30.428;2022-10-26T03:32:12;15.85;;;9.75;;
51754;SDS011;37829;50.370;30.428;2022-10-26T03:33:13;17.42;;;10.38;;
51754;SDS011;37829;50.370;30.428;2022-10-26T03:34:14;21.05;;;9.13;;
51754;SDS011;37829;50.370;30.428;2022-10-26T03:35:15;14.57;;;8.30;;
51754;SDS011;37829;50.370;30.428;2022-10-26T03:36:17;16.35;;;8.57;;
51754;SDS011;37829;50.370;30.428;2022-10-26T03:37:18;17.25;;;8.65;;
51754;SDS011;37829;50.370;30.428;2022-10-26T03:38:19;15.87;;;8.30;;
51754;SDS011;37829;50.370;30.428;2022-10-26T03:39:20;13.40;;;7.60;;
51754;SDS011;37829;50.370;30.428;2022-10-26T03:40:21;16.40;;;8.33;;
51754;SDS011;37829;50.370;30.428;2022-10-26T03:41:22;15.85;;;8.18;;
51754;SDS011;37829;50.370;30.428;2022-10-26T03:42:23;14.70;;;8.47;;
51754;SDS011;37829;50.370;30.428;2022-10-26T03:43:24;15.05;;;7.45;;
51754;SDS011;37829;50.370;30.428;2022-10-26T03:44:25;16.70;;;8.48;;
51754;SDS011;37829;50.370;30.428;2022-10-26T03:45:26;17.33;;;8.45;;
51754;SDS011;37829;50.370;30.428;2022-10-26T03:46:27;17.17;;;8.48;;
51754;SDS011;37829;50.370;30.428;2022-10-26T03:47:28;14.50;;;8.38;;
51754;SDS011;37829;50.370;30.428;2022-10-26T03:48:29;15.00;;;8.70;;
51754;SDS011;37829;50.370;30.428;2022-10-26T03:49:30;19.55;;;8.98;;
51754;SDS011;37829;50.370;30.428;2022-10-26T03:50:32;13.20;;;7.63;;
51754;SDS011;37829;50.370;30.428;2022-10-26T03:51:33;18.02;;;7.97;;
51754;SDS011;37829;50.370;30.428;2022-10-26T03:52:34;14.05;;;7.72;;
51754;SDS011;37829;50.370;30.428;2022-10-26T03:53:35;17.47;;;8.53;;
51754;SDS011;37829;50.370;30.428;2022-10-26T03:54:36;16.42;;;8.13;;
51754;SDS011;37829;50.370;30.428;2022-10-26T03:55:37;18.23;;;8.10;;
51754;SDS011;37829;50.370;30.428;2022-10-26T03:56:38;17.92;;;8.52;;
51754;SDS011;37829;50.370;30.428;2022-10-26T03:57:39;16.57;;;8.40;;
51754;SDS011;37829;50.370;30.428;2022-10-26T03:58:41;14.68;;;8.00;;
51754;SDS011;37829;50.370;30.428;2022-10-26T03:59:42;15.13;;;8.02;;
51754;SDS011;37829;50.370;30.428;2022-10-26T04:00:43;14.98;;;8.30;;
51754;SDS011;37829;50.370;30.428;2022-10-26T04:01:44;17.05;;;7.90;;
51754;SDS011;37829;50.370;30.428;2022-10-26T04:02:52;16.73;;;8.40;;
51754;SDS011;37829;50.370;30.428;2022-10-26T04:03:53;17.58;;;8.07;;
51754;SDS011;37829;50.370;30.428;2022-10-26T04:04:54;16.52;;;8.00;;
51754;SDS011;37829;50.370;30.428;2022-10-26T04:05:58;15.40;;;8.37;;
51754;SDS011;37829;50.370;30.428;2022-10-26T04:06:59;14.15;;;8.13;;
51754;SDS011;37829;50.370;30.428;2022-10-26T04:08:00;13.60;;;7.83;;
51754;SDS011;37829;50.370;30.428;2022-10-26T04:10:04;13.48;;;7.53;;
51754;SDS011;37829;50.370;30.428;2022-10-26T04:11:05;14.75;;;7.93;;
51754;SDS011;37829;50.370;30.428;2022-10-26T04:12:06;13.57;;;7.28;;
51754;SDS011;37829;50.370;30.428;2022-10-26T04:13:07;14.30;;;8.32;;
51754;SDS011;37829;50.370;30.428;2022-10-26T04:14:08;13.77;;;7.93;;
51754;SDS011;37829;50.370;30.428;2022-10-26T04:15:09;14.25;;;7.47;;
51754;SDS011;37829;50.370;30.428;2022-10-26T04:16:10;13.93;;;7.57;;
51754;SDS011;37829;50.370;30.428;2022-10-26T04:17:12;17.35;;;8.45;;
51754;SDS011;37829;50.370;30.428;2022-10-26T04:18:12;14.40;;;8.48;;
51754;SDS011;37829;50.370;30.428;2022-10-26T04:19:14;14.05;;;7.75;;
51754;SDS011;37829;50.370;30.428;2022-10-26T04:20:15;12.77;;;7.27;;
51754;SDS011;37829;50.370;30.428;2022-10-26T04:21:16;13.63;;;7.53;;
51754;SDS011;37829;50.370;30.428;2022-10-26T04:22:17;14.07;;;7.13;;
51754;SDS011;37829;50.370;30.428;2022-10-26T04:23:18;15.73;;;7.90;;
51754;SDS011;37829;50.370;30.428;2022-10-26T04:24:20;12.70;;;7.53;;
51754;SDS011;37829;50.370;30.428;2022-10-26T04:25:21;12.90;;;7.33;;
51754;SDS011;37829;50.370;30.428;2022-10-26T04:26:22;14.13;;;7.57;;
51754;SDS011;37829;50.370;30.428;2022-10-26T04:27:23;14.98;;;7.72;;
51754;SDS011;37829;50.370;30.428;2022-10-26T04:28:24;14.07;;;8.17;;
51754;SDS011;37829;50.370;30.428;2022-10-26T04:29:25;14.57;;;8.18;;
51754;SDS011;37829;50.370;30.428;2022-10-26T04:30:26;12.45;;;7.35;;
51754;SDS011;37829;50.370;30.428;2022-10-26T04:31:28;14.43;;;7.47;;
51754;SDS011;37829;50.370;30.428;2022-10-26T04:32:29;13.50;;;8.13;;
51754;SDS011;37829;50.370;30.428;2022-10-26T04:33:30;16.23;;;7.07;;
51754;SDS011;37829;50.370;30.428;2022-10-26T04:34:31;11.65;;;7.10;;
51754;SDS011;37829;50.370;30.428;2022-10-26T04:35:33;15.15;;;8.18;;
51754;SDS011;37829;50.370;30.428;2022-10-26T04:36:36;14.38;;;7.80;;
51754;SDS011;37829;50.370;30.428;2022-10-26T04:38:38;14.05;;;7.90;;
51754;SDS011;37829;50.370;30.428;2022-10-26T04:39:39;15.20;;;8.02;;
51754;SDS011;37829;50.370;30.428;2022-10-26T04:40:40;13.07;;;7.43;;
51754;SDS011;37829;50.370;30.428;2022-10-26T04:41:41;15.60;;;7.32;;
51754;SDS011;37829;50.370;30.428;2022-10-26T04:42:42;15.73;;;8.13;;
51754;SDS011;37829;50.370;30.428;2022-10-26T04:43:44;13.35;;;7.80;;
51754;SDS011;37829;50.370;30.428;2022-10-26T04:44:44;11.90;;;7.40;;
51754;SDS011;37829;50.370;30.428;2022-10-26T04:45:46;15.23;;;7.88;;
51754;SDS011;37829;50.370;30.428;2022-10-26T04:46:47;16.45;;;8.55;;
51754;SDS011;37829;50.370;30.428;2022-10-26T04:47:57;14.05;;;7.78;;
51754;SDS011;37829;50.370;30.428;2022-10-26T04:48:58;16.02;;;8.50;;
51754;SDS011;37829;50.370;30.428;2022-10-26T04:50:00;17.10;;;7.30;;
51754;SDS011;37829;50.370;30.428;2022-10-26T04:51:00;12.43;;;8.03;;
51754;SDS011;37829;50.370;30.428;2022-10-26T04:52:02;13.27;;;7.60;;
51754;SDS011;37829;50.370;30.428;2022-10-26T04:53:05;14.40;;;7.68;;
51754;SDS011;37829;50.370;30.428;2022-10-26T04:54:06;16.17;;;7.68;;
51754;SDS011;37829;50.370;30.428;2022-10-26T04:55:07;18.10;;;8.40;;
51754;SDS011;37829;50.370;30.428;2022-10-26T04:56:08;17.42;;;8.52;;
51754;SDS011;37829;50.370;30.428;2022-10-26T04:57:09;16.90;;;8.93;;
51754;SDS011;37829;50.370;30.428;2022-10-26T04:58:10;16.08;;;8.15;;
51754;SDS011;37829;50.370;30.428;2022-10-26T04:59:12;13.38;;;7.93;;
51754;SDS011;37829;50.370;30.428;2022-10-26T05:00:13;12.80;;;7.50;;
51754;SDS011;37829;50.370;30.428;2022-10-26T05:01:14;11.90;;;7.25;;
51754;SDS011;37829;50.370;30.428;2022-10-26T05:02:15;18.63;;;7.95;;
51754;SDS011;37829;50.370;30.428;2022-10-26T05:03:17;13.75;;;7.82;;
51754;SDS011;37829;50.370;30.428;2022-10-26T05:04:18;13.85;;;7.57;;
51754;SDS011;37829;50.370;30.428;2022-10-26T05:05:19;13.43;;;7.37;;
51754;SDS011;37829;50.370;30.428;2022-10-26T05:06:20;15.82;;;7.97;;
51754;SDS011;37829;50.370;30.428;2022-10-26T05:07:22;13.48;;;8.18;;
51754;SDS011;37829;50.370;30.428;2022-10-26T05:09:24;11.95;;;6.78;;
51754;SDS011;37829;50.370;30.428;2022-10-26T05:10:25;13.52;;;7.43;;
51754;SDS011;37829;50.370;30.428;2022-10-26T05:11:27;14.48;;;7.45;;
51754;SDS011;37829;50.370;30.428;2022-10-26T05:12:27;13.53;;;7.87;;
51754;SDS011;37829;50.370;30.428;2022-10-26T05:13:29;15.25;;;8.73;;
51754;SDS011;37829;50.370;30.428;2022-10-26T05:14:29;14.37;;;7.93;;
51754;SDS011;37829;50.370;30.428;2022-10-26T05:15:31;14.30;;;8.15;;
51754;SDS011;37829;50.370;30.428;2022-10-26T05:16:32;15.07;;;7.43;;
51754;SDS011;37829;50.370;30.428;2022-10-26T05:17:33;15.32;;;8.52;;
51754;SDS011;37829;50.370;30.428;2022-10-26T05:18:34;13.27;;;8.02;;
51754;SDS011;37829;50.370;30.428;2022-10-26T05:19:35;13.10;;;7.68;;
51754;SDS011;37829;50.370;30.428;2022-10-26T05:20:36;13.88;;;8.50;;
51754;SDS011;37829;50.370;30.428;2022-10-26T05:21:37;16.30;;;7.97;;
51754;SDS011;37829;50.370;30.428;2022-10-26T05:22:39;15.87;;;8.03;;
51754;SDS011;37829;50.370;30.428;2022-10-26T05:23:40;16.02;;;8.95;;
51754;SDS011;37829;50.370;30.428;2022-10-26T05:24:41;18.53;;;8.37;;
51754;SDS011;37829;50.370;30.428;2022-10-26T05:25:43;14.00;;;7.60;;
51754;SDS011;37829;50.370;30.428;2022-10-26T05:26:44;13.65;;;7.32;;
51754;SDS011;37829;50.370;30.428;2022-10-26T05:27:45;19.05;;;8.27;;
51754;SDS011;37829;50.370;30.428;2022-10-26T05:28:46;15.95;;;7.88;;
51754;SDS011;37829;50.370;30.428;2022-10-26T05:29:48;16.52;;;8.43;;
51754;SDS011;37829;50.370;30.428;2022-10-26T05:30:49;19.00;;;8.80;;
51754;SDS011;37829;50.370;30.428;2022-10-26T05:31:50;17.80;;;8.67;;
51754;SDS011;37829;50.370;30.428;2022-10-26T05:32:52;13.77;;;7.82;;
51754;SDS011;37829;50.370;30.428;2022-10-26T05:33:53;16.02;;;7.20;;
51754;SDS011;37829;50.370;30.428;2022-10-26T05:34:54;15.82;;;7.95;;
51754;SDS011;37829;50.370;30.428;2022-10-26T05:35:55;15.47;;;8.00;;
51754;SDS011;37829;50.370;30.428;2022-10-26T05:36:56;14.43;;;7.53;;
51754;SDS011;37829;50.370;30.428;2022-10-26T05:37:58;16.52;;;7.88;;
51754;SDS011;37829;50.370;30.428;2022-10-26T05:38:59;18.38;;;8.32;;
51754;SDS011;37829;50.370;30.428;2022-10-26T05:40:01;13.13;;;8.02;;
51754;SDS011;37829;50.370;30.428;2022-10-26T05:41:01;14.70;;;7.70;;
51754;SDS011;37829;50.370;30.428;2022-10-26T05:42:03;16.00;;;8.20;;
51754;SDS011;37829;50.370;30.428;2022-10-26T05:43:04;17.45;;;8.38;;
51754;SDS011;37829;50.370;30.428;2022-10-26T05:44:05;13.10;;;7.22;;
51754;SDS011;37829;50.370;30.428;2022-10-26T05:45:06;14.67;;;7.67;;
51754;SDS011;37829;50.370;30.428;2022-10-26T05:46:07;16.08;;;7.25;;
51754;SDS011;37829;50.370;30.428;2022-10-26T05:47:08;14.90;;;7.97;;
51754;SDS011;37829;50.370;30.428;2022-10-26T05:48:10;18.23;;;8.07;;
51754;SDS011;37829;50.370;30.428;2022-10-26T05:49:11;16.13;;;8.23;;
51754;SDS011;37829;50.370;30.428;2022-10-26T05:50:12;17.75;;;8.30;;
51754;SDS011;37829;50.370;30.428;2022-10-26T05:51:13;15.40;;;8.07;;
51754;SDS011;37829;50.370;30.428;2022-10-26T05:52:15;18.63;;;8.40;;
51754;SDS011;37829;50.370;30.428;2022-10-26T05:53:18;17.17;;;8.50;;
51754;SDS011;37829;50.370;30.428;2022-10-26T05:55:20;13.23;;;7.88;;
51754;SDS011;37829;50.370;30.428;2022-10-26T05:56:28;15.57;;;7.60;;
51754;SDS011;37829;50.370;30.428;2022-10-26T05:57:32;15.02;;;8.80;;
51754;SDS011;37829;50.370;30.428;2022-10-26T05:58:34;14.73;;;7.57;;
51754;SDS011;37829;50.370;30.428;2022-10-26T05:59:35;15.85;;;8.50;;
51754;SDS011;37829;50.370;30.428;2022-10-26T06:00:36;14.68;;;8.48;;
51754;SDS011;37829;50.370;30.428;2022-10-26T06:01:44;16.55;;;8.73;;
51754;SDS011;37829;50.370;30.428;2022-10-26T06:02:53;16.42;;;7.75;;
51754;SDS011;37829;50.370;30.428;2022-10-26T06:04:00;15.38;;;7.82;;
51754;SDS011;37829;50.370;30.428;2022-10-26T06:05:04;23.50;;;9.43;;
51754;SDS011;37829;50.370;30.428;2022-10-26T06:06:06;17.42;;;9.38;;
51754;SDS011;37829;50.370;30.428;2022-10-26T06:08:09;17.13;;;7.75;;
51754;SDS011;37829;50.370;30.428;2022-10-26T06:10:12;19.95;;;7.90;;
51754;SDS011;37829;50.370;30.428;2022-10-26T06:11:14;17.17;;;8.93;;
51754;SDS011;37829;50.370;30.428;2022-10-26T06:12:15;14.90;;;8.20;;
51754;SDS011;37829;50.370;30.428;2022-10-26T06:13:20;15.70;;;7.85;;
51754;SDS011;37829;50.370;30.428;2022-10-26T06:14:21;17.38;;;8.20;;
51754;SDS011;37829;50.370;30.428;2022-10-26T06:15:23;15.13;;;7.65;;